Time;durP1;ratioP1;P1;durP2;ratioP2;P2;SDS_P1;SDS_P2;PMS_P1;PMS_P2;Temp;Humidity;BMP_temperature;BMP_pressure;BME280_temperature;BME280_humidity;BME280_pressure;Samples;Min_cycle;Max_cycle;Signal;HPM_P1;HPM_P2
2021/01/20 00:00:13;;;;;;;0.50;0.30;;;4.10;99.90;;;;;;5049874;28;20468;-58
2021/01/20 00:02:41;;;;;;;0.50;0.30;;;4.10;99.90;;;;;;5050447;28;20422;-59
2021/01/20 00:05:08;;;;;;;0.50;0.30;;;4.10;99.90;;;;;;5049441;28;20429;-58
2021/01/20 00:07:35;;;;;;;0.90;0.30;;;4.10;99.90;;;;;;5050660;28;20429;-58
2021/01/20 00:10:01;;;;;;;0.70;0.30;;;4.20;99.90;;;;;;5051095;28;20425;-59
2021/01/20 00:12:28;;;;;;;0.40;0.20;;;4.10;99.90;;;;;;5052424;28;20425;-58
2021/01/20 00:14:54;;;;;;;0.50;0.30;;;4.10;99.90;;;;;;5050318;28;20490;-58
2021/01/20 00:17:20;;;;;;;0.60;0.30;;;4.10;99.90;;;;;;5051244;28;20949;-59
2021/01/20 00:19:48;;;;;;;0.50;0.20;;;4.10;99.90;;;;;;5052103;28;20462;-58
2021/01/20 00:22:14;;;;;;;0.60;0.30;;;4.20;99.90;;;;;;5050503;28;20425;-60
2021/01/20 00:24:41;;;;;;;0.52;0.30;;;4.20;99.90;;;;;;5050284;28;20724;-58
2021/01/20 00:27:08;;;;;;;0.55;0.30;;;4.20;99.90;;;;;;5050721;28;20545;-59
2021/01/20 00:29:34;;;;;;;0.80;0.30;;;4.20;99.90;;;;;;5050425;28;20437;-59
2021/01/20 00:32:00;;;;;;;0.50;0.30;;;4.20;99.90;;;;;;5050763;28;20413;-59
2021/01/20 00:34:27;;;;;;;0.70;0.30;;;4.20;99.90;;;;;;5050163;28;20429;-58
2021/01/20 00:36:54;;;;;;;0.60;0.30;;;4.10;99.90;;;;;;5052145;28;20422;-59
2021/01/20 00:39:21;;;;;;;0.98;0.20;;;4.20;99.90;;;;;;5053051;28;20424;-59
2021/01/20 00:41:47;;;;;;;0.40;0.30;;;4.20;99.90;;;;;;5051947;28;20427;-59
2021/01/20 00:44:14;;;;;;;0.60;0.30;;;4.20;99.90;;;;;;5051388;28;20417;-59
2021/01/20 00:46:40;;;;;;;0.60;0.27;;;4.20;99.90;;;;;;5051728;28;20421;-59
2021/01/20 00:49:06;;;;;;;0.60;0.30;;;4.20;99.90;;;;;;5051129;28;20508;-59
2021/01/20 00:51:33;;;;;;;0.65;0.30;;;4.10;99.90;;;;;;5052741;28;20425;-59
2021/01/20 00:54:00;;;;;;;0.50;0.30;;;4.10;99.90;;;;;;5052928;28;20508;-59
2021/01/20 00:56:26;;;;;;;0.60;0.30;;;4.10;99.90;;;;;;5054462;28;20787;-59
2021/01/20 00:58:53;;;;;;;0.50;0.30;;;4.10;99.90;;;;;;5054040;28;20421;-59
2021/01/20 01:01:19;;;;;;;0.50;0.30;;;4.00;99.90;;;;;;5054923;28;20783;-59
2021/01/20 01:03:45;;;;;;;0.60;0.30;;;3.90;99.90;;;;;;5053268;28;20774;-59
2021/01/20 01:06:11;;;;;;;0.80;0.40;;;3.90;99.90;;;;;;5053484;28;20429;-60
2021/01/20 01:08:38;;;;;;;0.73;0.38;;;3.90;99.90;;;;;;5052130;28;20417;-59
2021/01/20 01:11:05;;;;;;;0.50;0.30;;;3.90;99.90;;;;;;5051103;28;20429;-59
2021/01/20 01:13:32;;;;;;;0.60;0.30;;;3.90;99.90;;;;;;5050638;28;20413;-59
2021/01/20 01:15:59;;;;;;;0.90;0.30;;;3.90;99.90;;;;;;5050634;28;20433;-59
2021/01/20 01:18:25;;;;;;;0.60;0.30;;;3.90;99.90;;;;;;5053203;28;20551;-59
2021/01/20 01:20:51;;;;;;;0.80;0.30;;;4.00;99.90;;;;;;5051815;28;20833;-59
2021/01/20 01:23:18;;;;;;;1.20;0.30;;;3.90;99.90;;;;;;5049569;28;20513;-59
2021/01/20 01:25:44;;;;;;;0.60;0.28;;;3.90;99.90;;;;;;5049723;28;20520;-59
2021/01/20 01:28:13;;;;;;;0.50;0.30;;;4.00;99.90;;;;;;5051473;28;20694;-59
2021/01/20 01:30:40;;;;;;;0.60;0.30;;;3.90;99.90;;;;;;5051223;28;20787;-59
2021/01/20 01:33:07;;;;;;;0.60;0.30;;;3.90;99.90;;;;;;5050860;28;20595;-60
2021/01/20 01:35:33;;;;;;;0.50;0.30;;;3.90;99.90;;;;;;5052739;28;20482;-59
2021/01/20 01:38:00;;;;;;;0.50;0.30;;;3.90;99.90;;;;;;5053532;28;20418;-59
2021/01/20 01:40:26;;;;;;;0.50;0.30;;;4.00;99.90;;;;;;5052784;28;20432;-59
2021/01/20 01:42:53;;;;;;;1.10;0.30;;;3.90;99.90;;;;;;5053430;28;20732;-59
2021/01/20 01:45:20;;;;;;;0.50;0.20;;;4.00;99.90;;;;;;5052728;28;20431;-59
2021/01/20 01:47:47;;;;;;;0.60;0.20;;;4.10;99.90;;;;;;5054360;28;20421;-59
2021/01/20 01:50:14;;;;;;;0.50;0.30;;;4.10;99.90;;;;;;5053806;28;20955;-59
2021/01/20 01:52:42;;;;;;;0.60;0.30;;;4.10;99.90;;;;;;5053910;28;20421;-59
2021/01/20 01:55:10;;;;;;;0.45;0.25;;;4.10;99.90;;;;;;5053465;28;20883;-59
2021/01/20 01:57:38;;;;;;;0.55;0.30;;;4.10;99.90;;;;;;5053529;28;20421;-59
2021/01/20 02:00:06;;;;;;;0.60;0.30;;;4.20;99.90;;;;;;5053414;28;20737;-59
2021/01/20 02:02:34;;;;;;;0.60;0.30;;;4.20;99.90;;;;;;5051665;28;20589;-59
2021/01/20 02:05:01;;;;;;;0.43;0.30;;;4.10;99.90;;;;;;5051805;28;20437;-60
2021/01/20 02:07:28;;;;;;;0.43;0.20;;;4.20;99.90;;;;;;5052204;28;20421;-59
2021/01/20 02:09:54;;;;;;;0.45;0.25;;;4.20;99.90;;;;;;5051364;28;20429;-59
2021/01/20 02:12:41;;;;;;;0.70;0.30;;;4.10;99.90;;;;;;5051415;28;20421;-59
2021/01/20 02:15:15;;;;;;;0.50;0.30;;;4.10;99.90;;;;;;5049299;28;20435;-59
2021/01/20 02:17:46;;;;;;;0.90;0.35;;;4.00;99.90;;;;;;5049249;28;20425;-59
2021/01/20 02:20:44;;;;;;;0.60;0.30;;;3.90;99.90;;;;;;5049990;28;20433;-59
2021/01/20 02:23:15;;;;;;;0.60;0.30;;;3.90;99.90;;;;;;5050187;28;20417;-59
2021/01/20 02:26:04;;;;;;;0.50;0.20;;;4.00;99.90;;;;;;5048968;28;20902;-59
2021/01/20 02:28:41;;;;;;;0.40;0.20;;;4.00;99.90;;;;;;5047815;28;20786;-58
2021/01/20 02:31:09;;;;;;;0.50;0.30;;;4.10;99.90;;;;;;5050551;28;20724;-60
2021/01/20 02:33:37;;;;;;;0.50;0.20;;;4.20;99.90;;;;;;5052048;28;20907;-59
2021/01/20 02:36:06;;;;;;;0.50;0.20;;;4.20;99.90;;;;;;5055264;28;20437;-59
2021/01/20 02:38:34;;;;;;;0.50;0.20;;;4.30;99.90;;;;;;5054946;28;20500;-60
2021/01/20 02:41:00;;;;;;;0.43;0.20;;;4.30;99.90;;;;;;5056312;28;20741;-59
2021/01/20 02:43:27;;;;;;;0.40;0.20;;;4.30;99.90;;;;;;5057139;28;20867;-59
2021/01/20 02:45:53;;;;;;;0.70;0.30;;;4.30;99.90;;;;;;5056784;28;20425;-59
2021/01/20 02:48:21;;;;;;;0.60;0.30;;;4.30;99.90;;;;;;5055369;28;20842;-59
2021/01/20 02:50:47;;;;;;;0.50;0.20;;;4.30;99.90;;;;;;5055766;28;20433;-59
2021/01/20 02:53:16;;;;;;;0.70;0.20;;;4.30;99.90;;;;;;5055112;28;20421;-60
2021/01/20 02:55:48;;;;;;;0.50;0.20;;;4.30;99.90;;;;;;5056007;28;20432;-60
2021/01/20 02:58:20;;;;;;;0.50;0.30;;;4.30;99.90;;;;;;5054738;28;20508;-60
2021/01/20 03:00:49;;;;;;;0.50;0.20;;;4.30;99.90;;;;;;5055480;28;20429;-59
2021/01/20 03:03:17;;;;;;;0.50;0.20;;;4.30;99.90;;;;;;5057108;28;20506;-62
2021/01/20 03:05:46;;;;;;;0.60;0.20;;;4.30;99.90;;;;;;5056122;28;20421;-59
2021/01/20 03:08:13;;;;;;;0.40;0.20;;;4.30;99.90;;;;;;5055494;28;20479;-59
2021/01/20 03:10:40;;;;;;;0.40;0.22;;;4.30;99.90;;;;;;5056591;28;20429;-59
2021/01/20 03:13:06;;;;;;;0.50;0.28;;;4.20;99.90;;;;;;5054877;28;20866;-59
2021/01/20 03:15:35;;;;;;;1.00;0.30;;;4.20;99.90;;;;;;5054679;28;20440;-59
2021/01/20 03:18:02;;;;;;;0.60;0.30;;;4.20;99.90;;;;;;5055376;28;20414;-59
2021/01/20 03:20:28;;;;;;;0.60;0.30;;;4.20;99.90;;;;;;5055106;28;20429;-60
2021/01/20 03:22:55;;;;;;;0.50;0.30;;;4.30;99.90;;;;;;5055446;28;20421;-59
2021/01/20 03:25:22;;;;;;;0.70;0.20;;;4.30;99.90;;;;;;5055634;28;20421;-60
2021/01/20 03:27:48;;;;;;;0.45;0.20;;;4.30;99.90;;;;;;5056019;28;20736;-59
2021/01/20 03:30:16;;;;;;;0.60;0.25;;;4.30;99.90;;;;;;5056311;28;20440;-59
2021/01/20 03:32:42;;;;;;;0.80;0.30;;;4.20;99.90;;;;;;5055967;28;20422;-60
2021/01/20 03:35:10;;;;;;;0.88;0.20;;;4.20;99.90;;;;;;5056005;28;20445;-60
2021/01/20 03:37:36;;;;;;;0.47;0.30;;;4.20;99.90;;;;;;5055395;28;20457;-60
2021/01/20 03:40:05;;;;;;;0.60;0.20;;;4.20;99.90;;;;;;5056042;28;20515;-60
2021/01/20 03:42:32;;;;;;;0.50;0.30;;;4.10;99.90;;;;;;5056451;28;20673;-60
2021/01/20 03:44:58;;;;;;;0.50;0.30;;;4.10;99.90;;;;;;5055865;28;20891;-59
2021/01/20 03:47:24;;;;;;;0.52;0.30;;;4.00;99.90;;;;;;5055111;28;20439;-59
2021/01/20 03:49:51;;;;;;;0.40;0.20;;;4.00;99.90;;;;;;5055332;28;20425;-60
2021/01/20 03:52:17;;;;;;;0.60;0.30;;;3.90;99.90;;;;;;5054763;28;20417;-60
2021/01/20 03:54:44;;;;;;;0.40;0.30;;;3.90;99.90;;;;;;5054519;28;20472;-60
2021/01/20 03:57:11;;;;;;;1.80;0.20;;;3.80;99.90;;;;;;5054324;28;20429;-59
2021/01/20 03:59:37;;;;;;;0.45;0.20;;;3.80;99.90;;;;;;5054742;28;20464;-59
2021/01/20 04:02:05;;;;;;;0.93;0.20;;;3.80;99.90;;;;;;5053971;28;20511;-60
2021/01/20 04:04:32;;;;;;;0.60;0.30;;;3.70;99.90;;;;;;5054882;28;20421;-59
2021/01/20 04:07:01;;;;;;;0.80;0.28;;;3.70;99.90;;;;;;5055347;28;20421;-59
2021/01/20 04:09:27;;;;;;;0.50;0.30;;;3.60;99.90;;;;;;5055016;28;20817;-59
2021/01/20 04:11:54;;;;;;;0.60;0.30;;;3.60;99.90;;;;;;5055265;28;20447;-59
2021/01/20 04:14:21;;;;;;;1.60;0.30;;;3.70;99.90;;;;;;5054759;28;20445;-59
2021/01/20 04:16:47;;;;;;;0.63;0.40;;;3.70;99.90;;;;;;5055278;28;20433;-59
2021/01/20 04:19:13;;;;;;;0.50;0.30;;;3.70;99.90;;;;;;5055240;28;20455;-59
2021/01/20 04:21:40;;;;;;;0.47;0.30;;;3.70;99.90;;;;;;5054925;28;20508;-59
2021/01/20 04:24:07;;;;;;;0.60;0.30;;;3.80;99.90;;;;;;5055038;28;20427;-60
2021/01/20 04:26:34;;;;;;;0.60;0.40;;;3.70;99.90;;;;;;5053874;28;20446;-59
2021/01/20 04:29:00;;;;;;;0.60;0.30;;;3.70;99.90;;;;;;5053492;28;20478;-59
2021/01/20 04:31:27;;;;;;;0.60;0.38;;;3.70;99.90;;;;;;5053389;28;20435;-60
2021/01/20 04:33:53;;;;;;;0.40;0.20;;;3.70;99.90;;;;;;5053719;28;20504;-59
2021/01/20 04:36:20;;;;;;;0.40;0.20;;;3.60;99.90;;;;;;5053592;28;20629;-60
2021/01/20 04:38:47;;;;;;;0.80;0.30;;;3.60;99.90;;;;;;5053448;28;20478;-59
2021/01/20 04:41:13;;;;;;;0.50;0.30;;;3.60;99.90;;;;;;5054076;28;20490;-59
2021/01/20 04:43:42;;;;;;;0.60;0.30;;;3.60;99.90;;;;;;5054730;28;20504;-59
2021/01/20 04:46:09;;;;;;;0.60;0.30;;;3.60;99.90;;;;;;5054029;28;20520;-59
2021/01/20 04:48:36;;;;;;;0.50;0.30;;;3.60;99.90;;;;;;5054456;28;20507;-59
2021/01/20 04:51:04;;;;;;;0.45;0.20;;;3.60;99.90;;;;;;5054075;28;20433;-59
2021/01/20 04:53:32;;;;;;;0.60;0.30;;;3.70;99.90;;;;;;5054770;28;20505;-59
2021/01/20 04:56:04;;;;;;;0.57;0.30;;;3.70;99.90;;;;;;5054432;28;20437;-59
2021/01/20 04:58:31;;;;;;;1.08;0.30;;;3.70;99.90;;;;;;5054485;28;20536;-59
2021/01/20 05:00:58;;;;;;;0.82;0.30;;;3.70;99.90;;;;;;5053118;28;20511;-59
2021/01/20 05:03:26;;;;;;;0.50;0.20;;;3.80;99.90;;;;;;5052528;28;20425;-60
2021/01/20 05:05:54;;;;;;;0.55;0.20;;;3.80;99.90;;;;;;5051679;28;20432;-59
2021/01/20 05:08:21;;;;;;;0.50;0.30;;;3.80;99.90;;;;;;5050683;28;20424;-59
2021/01/20 05:10:48;;;;;;;0.50;0.20;;;3.80;99.90;;;;;;5051249;28;20988;-60
2021/01/20 05:13:28;;;;;;;0.50;0.30;;;3.90;99.90;;;;;;5050061;28;20418;-59
2021/01/20 05:15:55;;;;;;;0.50;0.30;;;3.90;99.90;;;;;;5050496;28;20845;-58
2021/01/20 05:18:21;;;;;;;0.50;0.20;;;4.10;99.90;;;;;;5051359;28;20423;-58
2021/01/20 05:20:48;;;;;;;0.32;0.20;;;4.10;99.90;;;;;;5053021;28;20471;-57
2021/01/20 05:23:15;;;;;;;0.40;0.20;;;4.20;99.90;;;;;;5052660;28;20539;-58
2021/01/20 05:25:43;;;;;;;0.40;0.20;;;4.30;99.90;;;;;;5053177;28;20851;-59
2021/01/20 05:28:20;;;;;;;0.40;0.30;;;4.30;99.90;;;;;;5053547;28;20726;-59
2021/01/20 05:30:48;;;;;;;0.50;0.28;;;4.40;99.90;;;;;;5054369;28;20433;-58
2021/01/20 05:33:16;;;;;;;0.60;0.28;;;4.40;99.90;;;;;;5054087;28;20454;-59
2021/01/20 05:35:43;;;;;;;0.77;0.30;;;4.40;99.90;;;;;;5054033;28;20437;-58
2021/01/20 05:38:10;;;;;;;0.60;0.30;;;4.50;99.90;;;;;;5053694;28;20491;-58
2021/01/20 05:40:38;;;;;;;0.50;0.30;;;4.50;99.90;;;;;;5053063;28;20473;-58
2021/01/20 05:43:05;;;;;;;0.40;0.20;;;4.50;99.90;;;;;;5053502;28;20867;-58
2021/01/20 05:45:32;;;;;;;0.60;0.30;;;4.60;99.90;;;;;;5053328;28;20844;-58
2021/01/20 05:48:07;;;;;;;0.60;0.30;;;4.60;99.90;;;;;;5054014;28;20455;-58
2021/01/20 05:50:34;;;;;;;0.50;0.30;;;4.60;99.90;;;;;;5052942;28;20784;-59
2021/01/20 05:53:08;;;;;;;0.50;0.30;;;4.60;99.90;;;;;;5052854;28;20848;-58
2021/01/20 05:55:37;;;;;;;0.50;0.20;;;4.70;99.90;;;;;;5053673;28;20716;-59
2021/01/20 05:58:04;;;;;;;0.60;0.30;;;4.70;99.90;;;;;;5052599;28;20875;-57
2021/01/20 06:00:32;;;;;;;0.90;0.30;;;4.70;99.90;;;;;;5050417;28;20443;-58
2021/01/20 06:02:58;;;;;;;0.50;0.20;;;4.80;99.90;;;;;;5049064;28;20969;-59
2021/01/20 06:05:26;;;;;;;0.50;0.30;;;4.80;99.90;;;;;;5051563;28;20516;-57
2021/01/20 06:07:54;;;;;;;0.50;0.30;;;4.70;99.90;;;;;;5052430;28;20481;-57
2021/01/20 06:10:21;;;;;;;0.70;0.40;;;4.80;99.90;;;;;;5056739;28;20466;-56
2021/01/20 06:12:49;;;;;;;0.67;0.30;;;4.70;99.90;;;;;;5059563;28;20596;-57
2021/01/20 06:15:16;;;;;;;0.60;0.30;;;4.70;99.90;;;;;;5091207;28;20435;-57
2021/01/20 06:17:44;;;;;;;0.90;0.40;;;4.80;99.90;;;;;;5076976;28;20519;-57
2021/01/20 06:20:12;;;;;;;0.50;0.30;;;4.80;99.90;;;;;;5077358;28;20775;-57
2021/01/20 06:22:46;;;;;;;0.80;0.40;;;4.90;99.90;;;;;;5087012;28;20982;-58
2021/01/20 06:25:19;;;;;;;0.70;0.30;;;4.90;99.90;;;;;;5097209;28;20429;-57
2021/01/20 06:27:51;;;;;;;0.70;0.30;;;4.90;99.90;;;;;;5096772;28;20414;-57
2021/01/20 06:30:23;;;;;;;0.50;0.20;;;5.00;99.90;;;;;;5087884;28;20433;-56
2021/01/20 06:32:49;;;;;;;0.70;0.30;;;5.00;99.90;;;;;;5097471;28;20422;-57
2021/01/20 06:35:17;;;;;;;0.60;0.30;;;5.00;99.90;;;;;;5097239;28;20462;-56
2021/01/20 06:37:44;;;;;;;0.95;0.40;;;5.10;99.90;;;;;;5088694;28;20506;-57
2021/01/20 06:40:38;;;;;;;0.60;0.30;;;5.10;99.90;;;;;;5075863;28;20438;-54
2021/01/20 06:43:43;;;;;;;0.50;0.30;;;5.10;99.90;;;;;;5075907;28;20477;-58
2021/01/20 06:46:21;;;;;;;0.50;0.30;;;5.10;99.90;;;;;;5076018;28;20430;-58
2021/01/20 06:49:07;;;;;;;0.50;0.30;;;5.00;99.90;;;;;;5073954;28;20476;-58
2021/01/20 06:51:35;;;;;;;0.50;0.20;;;5.00;99.90;;;;;;5075470;28;20434;-58
2021/01/20 06:54:15;;;;;;;0.50;0.30;;;5.00;99.90;;;;;;5075258;28;20813;-58
2021/01/20 06:56:46;;;;;;;0.70;0.40;;;5.00;99.90;;;;;;5075182;28;20431;-58
2021/01/20 06:59:20;;;;;;;0.60;0.30;;;5.10;99.90;;;;;;5073316;28;20707;-59
2021/01/20 07:02:09;;;;;;;0.50;0.20;;;5.10;99.90;;;;;;5073276;28;20464;-58
2021/01/20 07:04:54;;;;;;;1.47;0.30;;;5.10;99.90;;;;;;5079315;28;20434;-58
2021/01/20 07:08:00;;;;;;;0.47;0.22;;;5.10;99.90;;;;;;5093999;28;20414;-57
2021/01/20 07:10:31;;;;;;;0.63;0.30;;;5.30;99.90;;;;;;5094015;28;20548;-59
2021/01/20 07:13:17;;;;;;;0.63;0.30;;;5.30;99.90;;;;;;5091960;28;20428;-60
2021/01/20 07:15:49;;;;;;;1.20;0.30;;;5.40;99.90;;;;;;5094244;28;20464;-58
2021/01/20 07:18:17;;;;;;;0.60;0.30;;;5.40;99.90;;;;;;5084998;28;20894;-55
2021/01/20 07:20:46;;;;;;;0.60;0.30;;;5.40;99.90;;;;;;5052786;28;20915;-55
2021/01/20 07:23:12;;;;;;;0.50;0.20;;;5.50;99.90;;;;;;5078804;28;20478;-57
2021/01/20 07:25:39;;;;;;;0.55;0.30;;;5.60;99.90;;;;;;5093798;28;20690;-57
2021/01/20 07:28:06;;;;;;;0.65;0.30;;;5.60;99.90;;;;;;5094130;28;20424;-57
2021/01/20 07:30:32;;;;;;;0.40;0.30;;;5.60;99.90;;;;;;5095260;28;20538;-57
2021/01/20 07:33:00;;;;;;;0.70;0.30;;;5.60;99.90;;;;;;5091764;28;20516;-57
2021/01/20 07:35:28;;;;;;;0.40;0.30;;;5.60;99.90;;;;;;5093788;28;20442;-54
2021/01/20 07:38:02;;;;;;;0.50;0.30;;;5.70;99.90;;;;;;5085485;28;20853;-55
2021/01/20 07:40:30;;;;;;;0.57;0.20;;;5.60;99.90;;;;;;5089496;28;20520;-57
2021/01/20 07:42:56;;;;;;;0.60;0.30;;;5.70;99.90;;;;;;5084660;28;20464;-60
2021/01/20 07:45:34;;;;;;;1.00;0.30;;;5.70;99.90;;;;;;5091822;28;20697;-58
2021/01/20 07:48:02;;;;;;;0.50;0.30;;;5.80;99.90;;;;;;5075518;28;20643;-58
2021/01/20 07:50:42;;;;;;;0.60;0.30;;;5.80;99.90;;;;;;5079392;28;20436;-57
2021/01/20 07:53:15;;;;;;;0.70;0.30;;;5.80;99.90;;;;;;5070642;28;20519;-58
2021/01/20 07:55:42;;;;;;;0.50;0.20;;;5.80;99.90;;;;;;5084581;28;20441;-58
2021/01/20 07:58:09;;;;;;;0.70;0.30;;;5.90;99.90;;;;;;5093170;28;20418;-58
2021/01/20 08:00:46;;;;;;;0.70;0.30;;;5.90;99.90;;;;;;5094709;28;20442;-60
2021/01/20 08:03:14;;;;;;;0.70;0.20;;;5.90;99.90;;;;;;5082095;28;20638;-59
2021/01/20 08:05:42;;;;;;;0.60;0.30;;;5.80;99.90;;;;;;5074642;28;20815;-59
2021/01/20 08:08:10;;;;;;;0.50;0.30;;;5.80;99.90;;;;;;5081119;28;20864;-59
2021/01/20 08:10:37;;;;;;;0.60;0.30;;;5.90;99.90;;;;;;5092868;28;20430;-59
2021/01/20 08:13:07;;;;;;;0.50;0.20;;;5.90;99.90;;;;;;5084161;28;20430;-58
2021/01/20 08:15:37;;;;;;;2.55;0.30;;;5.90;99.90;;;;;;5092225;28;20717;-59
2021/01/20 08:18:05;;;;;;;0.50;0.30;;;6.00;99.90;;;;;;5074176;28;20415;-58
2021/01/20 08:20:33;;;;;;;0.70;0.30;;;6.00;99.90;;;;;;5071784;28;20858;-58
2021/01/20 08:23:01;;;;;;;0.80;0.30;;;6.00;99.90;;;;;;5072553;28;20450;-59
2021/01/20 08:25:27;;;;;;;0.90;0.30;;;5.90;99.90;;;;;;5073981;28;20431;-59
2021/01/20 08:27:55;;;;;;;0.50;0.30;;;5.80;99.90;;;;;;5073659;28;20520;-59
2021/01/20 08:30:32;;;;;;;0.60;0.30;;;5.90;99.90;;;;;;5080287;28;20999;-59
2021/01/20 08:32:59;;;;;;;1.00;0.30;;;5.90;99.90;;;;;;5080049;28;20512;-59
2021/01/20 08:35:28;;;;;;;0.60;0.30;;;6.00;99.90;;;;;;5083721;28;20890;-59
2021/01/20 08:37:55;;;;;;;1.40;0.40;;;5.90;99.90;;;;;;5082639;28;20453;-59
2021/01/20 08:40:22;;;;;;;0.75;0.40;;;5.90;99.90;;;;;;5079265;28;20436;-60
2021/01/20 08:42:48;;;;;;;0.80;0.30;;;5.90;99.90;;;;;;5091816;28;20421;-59
2021/01/20 08:45:17;;;;;;;0.70;0.40;;;5.90;99.90;;;;;;5079796;28;20423;-59
2021/01/20 08:47:45;;;;;;;0.60;0.30;;;5.90;99.90;;;;;;5071352;28;20510;-61
2021/01/20 08:50:16;;;;;;;1.50;0.30;;;6.00;99.90;;;;;;5072452;28;20530;-58
2021/01/20 08:52:47;;;;;;;1.00;0.30;;;6.10;99.90;;;;;;5075685;28;20546;-60
2021/01/20 08:55:29;;;;;;;0.50;0.30;;;6.10;99.90;;;;;;5092444;28;20461;-60
2021/01/20 08:58:18;;;;;;;0.70;0.30;;;6.10;99.90;;;;;;5088580;28;20512;-59
2021/01/20 09:00:46;;;;;;;0.90;0.30;;;5.90;99.90;;;;;;5090725;28;20517;-58
2021/01/20 09:03:17;;;;;;;0.90;0.40;;;5.90;99.90;;;;;;5093103;28;20422;-58
2021/01/20 09:05:44;;;;;;;0.60;0.30;;;5.90;99.90;;;;;;5092041;28;20508;-58
2021/01/20 09:08:10;;;;;;;0.68;0.30;;;5.90;99.90;;;;;;5073483;28;20422;-59
2021/01/20 09:10:38;;;;;;;0.65;0.30;;;5.90;99.90;;;;;;5088734;28;20516;-58
2021/01/20 09:13:04;;;;;;;0.57;0.30;;;5.90;99.90;;;;;;5089126;28;20414;-59
2021/01/20 09:15:31;;;;;;;0.60;0.30;;;5.90;99.90;;;;;;5089430;28;20430;-59
2021/01/20 09:17:57;;;;;;;0.70;0.30;;;5.90;99.90;;;;;;5093637;28;20448;-59
2021/01/20 09:20:24;;;;;;;1.40;0.30;;;5.90;99.90;;;;;;5092869;28;20461;-60
2021/01/20 09:22:50;;;;;;;0.60;0.30;;;5.90;99.90;;;;;;5093121;28;20825;-60
2021/01/20 09:25:17;;;;;;;0.70;0.40;;;5.90;99.90;;;;;;5076137;28;20431;-60
2021/01/20 09:27:44;;;;;;;1.80;0.30;;;5.90;99.90;;;;;;5073564;28;20861;-61
2021/01/20 09:30:12;;;;;;;0.90;0.40;;;5.80;99.90;;;;;;5072746;28;20800;-61
2021/01/20 09:32:38;;;;;;;0.70;0.40;;;5.80;99.90;;;;;;5071609;28;20502;-60
2021/01/20 09:35:09;;;;;;;0.80;0.30;;;5.80;99.90;;;;;;5069898;28;20423;-60
2021/01/20 09:37:36;;;;;;;0.60;0.30;;;5.90;99.90;;;;;;5070760;28;20724;-60
2021/01/20 09:40:04;;;;;;;1.30;0.32;;;5.90;99.90;;;;;;5070620;28;20419;-60
2021/01/20 09:42:31;;;;;;;0.70;0.40;;;6.00;99.90;;;;;;5072091;28;20474;-60
2021/01/20 09:44:58;;;;;;;0.70;0.40;;;6.00;99.90;;;;;;5074198;28;20509;-60
2021/01/20 09:47:24;;;;;;;0.70;0.40;;;6.00;99.90;;;;;;5074230;28;20419;-59
2021/01/20 09:49:51;;;;;;;0.70;0.40;;;6.10;99.90;;;;;;5076508;28;20435;-60
2021/01/20 09:52:18;;;;;;;0.70;0.40;;;6.10;99.90;;;;;;5080132;28;20431;-60
2021/01/20 09:54:45;;;;;;;0.73;0.50;;;6.10;99.90;;;;;;5074430;28;20738;-59
2021/01/20 09:57:11;;;;;;;0.57;0.40;;;6.10;99.90;;;;;;5079719;28;20434;-59
2021/01/20 09:59:37;;;;;;;0.90;0.50;;;6.10;99.90;;;;;;5071419;28;20439;-59
2021/01/20 10:02:05;;;;;;;0.88;0.40;;;6.10;99.90;;;;;;5087154;28;20759;-59
2021/01/20 10:04:31;;;;;;;1.30;0.40;;;6.20;99.90;;;;;;5094740;28;20414;-60
2021/01/20 10:06:58;;;;;;;0.90;0.40;;;6.10;99.90;;;;;;5096700;28;20420;-60
2021/01/20 10:09:25;;;;;;;0.80;0.40;;;6.10;99.90;;;;;;5085566;28;20475;-59
2021/01/20 10:11:52;;;;;;;0.80;0.47;;;6.10;99.90;;;;;;5095814;28;20536;-59
2021/01/20 10:14:18;;;;;;;0.60;0.32;;;6.20;99.90;;;;;;5095827;28;20428;-59
2021/01/20 10:16:46;;;;;;;0.73;0.40;;;6.20;99.90;;;;;;5093294;28;20726;-59
2021/01/20 10:19:14;;;;;;;0.60;0.40;;;6.20;99.90;;;;;;5096174;28;20513;-56
2021/01/20 10:21:42;;;;;;;0.70;0.40;;;6.10;99.90;;;;;;5082744;28;20796;-59
2021/01/20 10:24:09;;;;;;;0.60;0.40;;;6.10;99.90;;;;;;5083869;28;20465;-58
2021/01/20 10:26:36;;;;;;;1.80;0.40;;;6.20;99.90;;;;;;5079551;28;20441;-58
2021/01/20 10:29:02;;;;;;;0.70;0.30;;;6.20;99.90;;;;;;5073336;28;20430;-59
2021/01/20 10:31:30;;;;;;;0.80;0.50;;;6.20;99.90;;;;;;5079344;28;20824;-58
2021/01/20 10:33:56;;;;;;;0.80;0.40;;;6.20;99.90;;;;;;5082629;28;20502;-58
2021/01/20 10:36:23;;;;;;;0.70;0.50;;;6.20;99.90;;;;;;5088419;28;20513;-61
2021/01/20 10:38:50;;;;;;;1.52;0.70;;;6.20;99.90;;;;;;5078794;28;20415;-62
2021/01/20 10:41:19;;;;;;;0.80;0.40;;;6.30;99.90;;;;;;5083700;28;20434;-61
2021/01/20 10:43:45;;;;;;;1.05;0.40;;;6.30;99.90;;;;;;5088322;28;20518;-60
2021/01/20 10:46:12;;;;;;;2.22;0.50;;;6.40;99.90;;;;;;5074278;28;20853;-59
2021/01/20 10:48:39;;;;;;;1.80;0.50;;;6.50;99.90;;;;;;5073870;28;20917;-60
2021/01/20 10:51:05;;;;;;;1.40;0.50;;;6.50;99.90;;;;;;5074467;28;20488;-59
2021/01/20 10:53:32;;;;;;;1.70;0.50;;;6.50;99.90;;;;;;5088698;28;20520;-59
2021/01/20 10:55:59;;;;;;;0.90;0.45;;;6.60;99.90;;;;;;5092918;28;21035;-59
2021/01/20 10:58:25;;;;;;;0.60;0.40;;;6.60;99.90;;;;;;5083918;28;20427;-59
2021/01/20 11:00:52;;;;;;;0.90;0.50;;;6.70;99.90;;;;;;5074379;28;20435;-58
2021/01/20 11:03:19;;;;;;;0.80;0.50;;;6.80;99.90;;;;;;5072631;28;20929;-58
2021/01/20 11:05:45;;;;;;;0.90;0.50;;;6.80;99.90;;;;;;5075695;28;21068;-58
2021/01/20 11:08:11;;;;;;;2.30;0.40;;;6.90;99.90;;;;;;5071701;28;21109;-59
2021/01/20 11:10:39;;;;;;;1.20;0.50;;;6.90;99.90;;;;;;5070296;28;20443;-58
2021/01/20 11:13:08;;;;;;;0.70;0.40;;;7.10;99.90;;;;;;5071974;28;20893;-59
2021/01/20 11:15:36;;;;;;;1.00;0.50;;;7.00;99.90;;;;;;5072899;28;20442;-59
2021/01/20 11:18:03;;;;;;;0.85;0.50;;;7.00;99.90;;;;;;5072742;28;20423;-58
2021/01/20 11:20:29;;;;;;;1.10;0.50;;;7.00;99.90;;;;;;5076427;28;20430;-58
2021/01/20 11:22:56;;;;;;;1.60;0.50;;;7.00;99.90;;;;;;5072158;28;20512;-58
2021/01/20 11:25:22;;;;;;;0.80;0.50;;;7.00;99.90;;;;;;5070639;28;20424;-58
2021/01/20 11:27:50;;;;;;;0.90;0.50;;;7.00;99.90;;;;;;5071735;28;20463;-58
2021/01/20 11:30:22;;;;;;;0.60;0.43;;;7.00;99.90;;;;;;5085040;28;20434;-60
2021/01/20 11:32:52;;;;;;;1.00;0.53;;;7.00;99.90;;;;;;5051945;28;20426;-59
2021/01/20 11:35:22;;;;;;;0.60;0.40;;;6.90;99.90;;;;;;5069925;28;20463;-59
2021/01/20 11:38:05;;;;;;;1.27;0.50;;;7.00;99.90;;;;;;5073045;28;20426;-60
2021/01/20 11:40:33;;;;;;;2.25;0.50;;;7.00;99.90;;;;;;5051690;28;20445;-58
2021/01/20 11:43:00;;;;;;;1.60;0.60;;;6.90;99.90;;;;;;5056488;28;20792;-59
2021/01/20 11:45:27;;;;;;;1.08;0.60;;;6.90;99.90;;;;;;5090119;28;20425;-59
2021/01/20 11:47:54;;;;;;;0.88;0.50;;;6.90;99.90;;;;;;5078808;28;20457;-60
2021/01/20 11:50:22;;;;;;;1.02;0.60;;;6.90;99.90;;;;;;5084486;28;20443;-59
2021/01/20 11:52:50;;;;;;;0.70;0.50;;;6.90;99.90;;;;;;5079930;28;20949;-59
2021/01/20 11:55:16;;;;;;;1.40;0.60;;;6.90;99.90;;;;;;5078248;28;20481;-59
2021/01/20 11:57:43;;;;;;;0.70;0.50;;;6.90;99.90;;;;;;5077627;28;20431;-59
2021/01/20 12:00:12;;;;;;;0.95;0.50;;;7.00;99.90;;;;;;5075384;28;20480;-60
2021/01/20 12:02:38;;;;;;;1.60;0.60;;;7.00;99.90;;;;;;5063441;28;20519;-59
2021/01/20 12:05:06;;;;;;;1.03;0.60;;;6.90;99.90;;;;;;5069635;28;20606;-59
2021/01/20 12:07:32;;;;;;;2.10;0.60;;;6.90;99.90;;;;;;5071407;28;20481;-60
2021/01/20 12:09:59;;;;;;;1.40;0.60;;;6.90;99.90;;;;;;5060836;28;20526;-59
2021/01/20 12:12:25;;;;;;;1.00;0.65;;;7.00;99.90;;;;;;5079877;28;20424;-59
2021/01/20 12:14:51;;;;;;;1.00;0.70;;;7.10;99.90;;;;;;5072425;28;20423;-59
2021/01/20 12:17:18;;;;;;;1.30;0.60;;;7.10;99.90;;;;;;5075757;28;20467;-60
2021/01/20 12:19:45;;;;;;;1.52;0.60;;;7.10;99.90;;;;;;5076329;28;20485;-60
2021/01/20 12:22:11;;;;;;;1.50;0.50;;;7.20;99.90;;;;;;5082094;28;20852;-59
2021/01/20 12:24:38;;;;;;;1.85;0.60;;;7.10;99.90;;;;;;5078495;28;20554;-59
2021/01/20 12:27:04;;;;;;;1.15;0.50;;;7.10;99.90;;;;;;5076761;28;20764;-59
2021/01/20 12:29:31;;;;;;;2.92;0.60;;;7.20;99.90;;;;;;5072676;28;20750;-59
2021/01/20 12:31:57;;;;;;;0.80;0.50;;;7.20;99.90;;;;;;5089283;28;20414;-60
2021/01/20 12:34:24;;;;;;;0.80;0.50;;;7.30;99.90;;;;;;5089733;28;20425;-59
2021/01/20 12:36:50;;;;;;;1.15;0.50;;;7.30;99.90;;;;;;5091434;28;20432;-59
2021/01/20 12:39:17;;;;;;;1.00;0.60;;;7.40;99.90;;;;;;5088407;28;20418;-60
2021/01/20 12:41:43;;;;;;;1.67;0.60;;;7.40;99.90;;;;;;5091400;28;20504;-59
2021/01/20 12:44:09;;;;;;;1.10;0.60;;;7.40;99.90;;;;;;5078954;28;20793;-59
2021/01/20 12:46:37;;;;;;;1.60;0.60;;;7.40;99.90;;;;;;5072904;28;20426;-60
2021/01/20 12:49:04;;;;;;;0.90;0.60;;;7.30;99.90;;;;;;5074964;28;20419;-59
2021/01/20 12:51:31;;;;;;;0.90;0.60;;;7.40;99.90;;;;;;5074427;28;21077;-60
2021/01/20 12:53:58;;;;;;;1.60;0.60;;;7.40;99.90;;;;;;5072326;28;20419;-59
2021/01/20 12:56:24;;;;;;;1.52;0.70;;;7.40;99.90;;;;;;5071472;28;20435;-59
2021/01/20 12:58:51;;;;;;;1.13;0.60;;;7.50;99.90;;;;;;5072987;28;20435;-60
2021/01/20 13:01:17;;;;;;;1.00;0.50;;;7.50;99.90;;;;;;5070027;28;20825;-61
2021/01/20 13:03:44;;;;;;;1.05;0.60;;;7.50;99.90;;;;;;5078034;28;20841;-61